createdAt,value
2019-05-02T00:01:21.477Z,23.37
2019-05-02T00:03:51.590Z,22.70
2019-05-02T00:06:21.517Z,20.57
2019-05-02T00:08:50.805Z,21.53
2019-05-02T00:11:20.605Z,24.13
2019-05-02T00:13:50.233Z,23.03
2019-05-02T00:16:23.625Z,20.83
2019-05-02T00:18:53.291Z,21.60
2019-05-02T00:21:22.635Z,19.17
2019-05-02T00:23:52.034Z,21.37
2019-05-02T00:26:24.589Z,20.43
2019-05-02T00:28:52.381Z,21.27
2019-05-02T00:31:21.785Z,19.60
2019-05-02T00:33:51.201Z,22.43
2019-05-02T00:36:20.428Z,21.17
2019-05-02T00:38:49.799Z,23.07
2019-05-02T00:41:19.064Z,20.17
2019-05-02T00:43:48.294Z,20.77
2019-05-02T00:46:17.626Z,23.27
2019-05-02T00:48:54.054Z,23.77
2019-05-02T00:51:26.806Z,23.30
2019-05-02T00:53:53.160Z,22.47
2019-05-02T00:56:22.410Z,24.63
2019-05-02T00:58:51.564Z,25.63
2019-05-02T01:01:24.226Z,22.13
2019-05-02T01:03:55.082Z,23.97
2019-05-02T01:06:24.380Z,26.03
2019-05-02T01:08:53.823Z,22.87
2019-05-02T01:11:23.126Z,25.67
2019-05-02T01:13:55.681Z,26.87
2019-05-02T01:16:23.334Z,27.90
2019-05-02T01:18:52.596Z,28.53
2019-05-02T01:21:21.844Z,34.00
2019-05-02T01:23:51.146Z,30.80
2019-05-02T01:26:24.299Z,33.57
2019-05-02T01:29:06.465Z,31.83
2019-05-02T01:31:37.356Z,28.20
2019-05-02T01:34:13.077Z,33.43
2019-05-02T01:36:46.578Z,30.40
2019-05-02T01:39:15.922Z,33.07
2019-05-02T01:41:45.256Z,37.07
2019-05-02T01:44:14.573Z,35.87
2019-05-02T01:46:43.850Z,38.60
2019-05-02T01:49:16.842Z,33.27
2019-05-02T01:51:47.409Z,33.67
2019-05-02T01:54:16.572Z,41.03
2019-05-02T01:56:45.824Z,34.70
2019-05-02T01:59:15.275Z,36.97
2019-05-02T02:01:45.474Z,35.10
2019-05-02T02:04:16.127Z,36.80
2019-05-02T02:06:46.381Z,36.97
2019-05-02T02:09:15.838Z,36.97
2019-05-02T02:11:47.954Z,37.57
2019-05-02T02:14:18.754Z,41.90
2019-05-02T02:16:48.449Z,41.30
2019-05-02T02:19:39.200Z,39.30
2019-05-02T02:22:09.268Z,46.50
2019-05-02T02:24:40.211Z,49.07
2019-05-02T02:27:09.568Z,46.83
2019-05-02T02:29:43.849Z,50.23
2019-05-02T02:32:09.937Z,49.63
2019-05-02T02:34:39.228Z,48.97
2019-05-02T02:37:12.493Z,57.10
2019-05-02T02:39:39.582Z,51.30
2019-05-02T02:42:09.083Z,51.87
2019-05-02T02:44:47.073Z,54.03
2019-05-02T02:47:18.966Z,56.60
2019-05-02T02:49:47.634Z,50.30
2019-05-02T02:52:16.878Z,53.63
2019-05-02T02:54:46.198Z,56.50
2019-05-02T02:57:26.003Z,54.47
2019-05-02T02:59:46.494Z,55.37
2019-05-02T03:02:16.048Z,56.40
2019-05-02T03:04:46.382Z,48.13
2019-05-02T03:07:24.613Z,53.60
2019-05-02T03:09:46.823Z,51.47
2019-05-02T03:12:23.445Z,50.80
2019-05-02T03:14:57.841Z,52.83
2019-05-02T03:17:28.744Z,50.80
2019-05-02T03:20:01.149Z,52.40
2019-05-02T03:22:34.992Z,51.00
2019-05-02T03:25:00.206Z,53.77
2019-05-02T03:27:36.206Z,49.27
2019-05-02T03:30:00.426Z,48.93
2019-05-02T03:32:34.515Z,52.43
2019-05-02T03:35:02.285Z,47.03
2019-05-02T03:37:32.303Z,51.70
2019-05-02T03:40:01.862Z,51.80
2019-05-02T03:42:43.712Z,51.50
2019-05-02T03:45:04.986Z,52.17
2019-05-02T03:47:37.115Z,50.77
2019-05-02T03:50:08.944Z,47.67
2019-05-02T03:52:43.476Z,48.23
2019-05-02T03:55:08.878Z,50.77
2019-05-02T03:57:41.981Z,50.30
2019-05-02T04:00:13.592Z,58.20
2019-05-02T04:02:40.690Z,50.30
2019-05-02T04:05:10.244Z,52.60
2019-05-02T04:07:42.112Z,56.07
2019-05-02T04:10:19.703Z,52.13
2019-05-02T04:12:53.141Z,61.63
2019-05-02T04:15:18.137Z,53.20
2019-05-02T04:17:48.372Z,54.63
2019-05-02T04:20:17.617Z,56.87
2019-05-02T04:22:48.862Z,58.67
2019-05-02T04:25:18.713Z,54.17
2019-05-02T04:27:49.152Z,58.93
2019-05-02T04:30:18.489Z,55.67
2019-05-02T04:32:49.722Z,55.67
2019-05-02T04:35:18.684Z,59.60
2019-05-02T04:37:47.925Z,61.03
2019-05-02T04:40:18.241Z,54.63
2019-05-02T04:42:51.215Z,57.63
2019-05-02T04:45:26.496Z,56.37
2019-05-02T04:47:58.620Z,56.30
2019-05-02T04:50:25.145Z,59.10
2019-05-02T04:52:54.129Z,57.97
2019-05-02T04:55:30.326Z,64.00
2019-05-02T04:57:54.414Z,58.57
2019-05-02T05:00:28.713Z,60.63
2019-05-02T05:02:58.219Z,62.23
2019-05-02T05:05:31.046Z,54.23
2019-05-02T05:07:58.682Z,59.67
2019-05-02T05:10:27.949Z,58.20
2019-05-02T05:12:57.221Z,60.83
2019-05-02T05:15:37.100Z,58.97
2019-05-02T05:17:58.283Z,62.30
2019-05-02T05:20:28.019Z,58.73
2019-05-02T05:22:58.106Z,67.50
2019-05-02T05:25:29.072Z,66.23
2019-05-02T05:28:05.282Z,63.60
2019-05-02T05:30:29.265Z,64.23
2019-05-02T05:32:58.519Z,63.33
2019-05-02T05:35:28.157Z,63.33
2019-05-02T05:37:57.540Z,69.77
2019-05-02T05:40:30.293Z,71.80
2019-05-02T05:43:02.668Z,66.77
2019-05-02T05:45:29.026Z,68.87
2019-05-02T05:48:01.096Z,72.47
2019-05-02T05:50:32.219Z,67.53
2019-05-02T05:53:00.391Z,68.03
2019-05-02T05:55:31.776Z,66.57
2019-05-02T05:58:11.869Z,64.33
2019-05-02T06:00:31.975Z,62.63
2019-05-02T06:03:10.777Z,65.53
2019-05-02T06:05:50.253Z,61.93
2019-05-02T06:08:37.462Z,69.60
2019-05-02T06:11:06.864Z,62.23
2019-05-02T06:13:38.221Z,63.80
2019-05-02T06:16:25.846Z,64.17
2019-05-02T06:18:55.094Z,63.83
2019-05-02T06:21:24.348Z,64.20
2019-05-02T06:23:53.649Z,63.80
2019-05-02T06:26:22.856Z,64.03
2019-05-02T06:28:53.419Z,59.37
2019-05-02T06:31:43.032Z,59.20
2019-05-02T06:34:29.464Z,61.53
2019-05-02T06:36:59.885Z,57.00
2019-05-02T06:39:31.941Z,56.77
2019-05-02T06:42:00.132Z,57.90
2019-05-02T06:44:29.427Z,59.93
2019-05-02T06:46:59.218Z,57.60
2019-05-02T06:49:29.660Z,55.37
2019-05-02T06:51:58.936Z,55.80
2019-05-02T06:54:28.164Z,54.90
2019-05-02T06:56:57.384Z,53.13
2019-05-02T06:59:26.680Z,55.13
2019-05-02T07:01:57.548Z,55.87
2019-05-02T07:04:27.122Z,51.70
2019-05-02T07:06:59.045Z,52.67
2019-05-02T07:09:40.003Z,52.73
2019-05-02T07:12:01.387Z,57.13
2019-05-02T07:14:29.646Z,51.77
2019-05-02T07:17:09.976Z,56.00
2019-05-02T07:19:50.675Z,60.13
2019-05-02T07:22:20.155Z,55.00
2019-05-02T07:24:49.399Z,59.70
2019-05-02T07:27:18.675Z,62.07
2019-05-02T07:29:52.240Z,61.00
2019-05-02T07:32:24.909Z,64.20
2019-05-02T07:34:50.785Z,64.63
2019-05-02T07:37:20.068Z,67.73
2019-05-02T07:39:49.302Z,71.27
2019-05-02T07:42:18.588Z,72.30
2019-05-02T07:44:47.809Z,75.57
2019-05-02T07:47:17.087Z,72.50
2019-05-02T07:49:46.341Z,75.97
2019-05-02T07:52:15.645Z,74.83
2019-05-02T07:54:45.792Z,74.53
2019-05-02T07:57:15.161Z,72.43
2019-05-02T07:59:44.405Z,79.20
2019-05-02T08:02:13.695Z,79.67
2019-05-02T08:04:44.135Z,76.30
2019-05-02T08:07:16.204Z,79.10
2019-05-02T08:09:45.323Z,84.33
2019-05-02T08:12:14.823Z,79.60
2019-05-02T08:14:44.083Z,79.07
2019-05-02T08:17:17.065Z,85.60
2019-05-02T08:19:44.314Z,84.50
2019-05-02T08:22:14.909Z,82.37
2019-05-02T08:24:44.260Z,82.80
2019-05-02T08:27:15.182Z,81.07
2019-05-02T08:29:45.529Z,81.77
2019-05-02T08:32:14.742Z,90.57
2019-05-02T08:34:46.102Z,88.00
2019-05-02T08:37:14.962Z,89.70
2019-05-02T08:39:44.286Z,90.40
2019-05-02T08:42:13.711Z,86.13
2019-05-02T08:44:50.591Z,100.53
2019-05-02T08:47:19.154Z,91.20
2019-05-02T08:49:49.297Z,99.00
2019-05-02T08:52:16.304Z,100.07
2019-05-02T08:54:45.508Z,100.57
2019-05-02T08:57:14.827Z,92.70
2019-05-02T08:59:44.199Z,99.23
2019-05-02T09:02:13.504Z,105.37
2019-05-02T09:04:42.799Z,106.40
2019-05-02T09:07:12.049Z,115.60
2019-05-02T09:09:41.298Z,111.97
2019-05-02T09:12:13.224Z,111.50
2019-05-02T09:14:42.625Z,114.90
2019-05-02T09:17:16.408Z,108.13
2019-05-02T09:19:43.066Z,106.50
2019-05-02T09:22:15.351Z,110.73
2019-05-02T09:24:44.962Z,105.97
2019-05-02T09:27:14.269Z,108.27
2019-05-02T09:29:45.924Z,109.47
2019-05-02T09:32:17.183Z,110.30
2019-05-02T09:34:45.461Z,105.00
2019-05-02T09:37:15.108Z,104.03
2019-05-02T09:39:44.392Z,104.73
2019-05-02T09:42:15.651Z,103.67
2019-05-02T09:44:48.004Z,103.73
2019-05-02T09:47:27.525Z,90.37
2019-05-02T09:50:13.434Z,104.17
2019-05-02T09:52:44.191Z,100.07
2019-05-02T09:55:15.877Z,102.77
2019-05-02T09:57:45.273Z,101.70
2019-05-02T10:00:22.124Z,96.67
2019-05-02T10:02:52.381Z,90.50
2019-05-02T10:05:23.054Z,88.47
2019-05-02T10:07:52.727Z,93.80
2019-05-02T10:10:22.227Z,88.83
2019-05-02T10:12:52.142Z,92.30
2019-05-02T10:15:22.300Z,96.10
2019-05-02T10:17:52.021Z,100.63
2019-05-02T10:20:23.628Z,89.13
2019-05-02T10:22:53.288Z,90.87
2019-05-02T10:25:23.238Z,91.37
2019-05-02T10:27:53.809Z,90.57
2019-05-02T10:30:24.941Z,85.00
2019-05-02T10:32:57.290Z,85.27
2019-05-02T10:35:38.880Z,89.30
2019-05-02T10:38:03.980Z,84.13
2019-05-02T10:40:33.381Z,87.23
2019-05-02T10:43:02.910Z,84.50
2019-05-02T10:45:32.246Z,75.60
2019-05-02T10:48:02.298Z,77.80
2019-05-02T10:50:33.269Z,72.60
2019-05-02T10:53:03.609Z,80.63
2019-05-02T10:55:33.601Z,66.20
2019-05-02T10:58:02.919Z,75.90
2019-05-02T11:00:34.020Z,65.97
2019-05-02T11:03:06.375Z,60.30
2019-05-02T11:06:05.531Z,65.33
2019-05-02T11:08:47.156Z,64.33
2019-05-02T11:11:16.667Z,63.60
2019-05-02T11:14:05.647Z,64.57
2019-05-02T11:16:35.029Z,64.80
2019-05-02T11:19:08.556Z,64.50
2019-05-02T11:21:37.840Z,51.40
2019-05-02T11:24:11.506Z,35.17
2019-05-02T11:26:39.949Z,29.07
2019-05-02T11:29:09.214Z,26.10
2019-05-02T11:31:38.516Z,23.30
2019-05-02T11:34:07.815Z,17.80
2019-05-02T11:36:37.131Z,17.47
2019-05-02T11:39:16.300Z,15.27
2019-05-02T11:41:38.618Z,21.20
2019-05-02T11:44:07.905Z,17.53
2019-05-02T11:46:37.604Z,18.33
2019-05-02T11:49:08.082Z,19.43
2019-05-02T11:51:37.324Z,21.67
2019-05-02T11:54:09.335Z,24.83
2019-05-02T11:56:41.113Z,27.17
2019-05-02T11:59:08.709Z,26.10
2019-05-02T12:02:00.121Z,30.20
2019-05-02T12:04:47.299Z,31.20
2019-05-02T12:07:15.428Z,32.73
2019-05-02T12:09:52.093Z,31.37
2019-05-02T12:12:15.806Z,35.37
2019-05-02T12:14:44.997Z,40.73
2019-05-02T12:17:14.260Z,40.07
2019-05-02T12:19:43.669Z,39.17
2019-05-02T12:22:16.821Z,42.30
2019-05-02T12:24:45.485Z,44.70
2019-05-02T12:27:14.751Z,50.07
2019-05-02T12:29:44.052Z,51.10
2019-05-02T12:32:15.636Z,55.47
2019-05-02T12:34:44.481Z,51.17
2019-05-02T12:37:13.788Z,51.57
2019-05-02T12:39:43.096Z,49.87
2019-05-02T12:42:13.025Z,55.30
2019-05-02T12:44:42.721Z,50.37
2019-05-02T12:47:12.279Z,49.57
2019-05-02T12:49:42.426Z,52.60
2019-05-02T12:52:12.935Z,45.23
2019-05-02T12:54:42.222Z,48.90
2019-05-02T12:57:12.934Z,49.50
2019-05-02T12:59:42.269Z,45.97
2019-05-02T13:02:13.141Z,40.63
2019-05-02T13:04:42.404Z,42.60
2019-05-02T13:07:12.798Z,37.50
2019-05-02T13:09:42.147Z,35.13
2019-05-02T13:12:16.082Z,42.33
2019-05-02T13:14:45.407Z,43.17
2019-05-02T13:17:15.200Z,40.67
2019-05-02T13:19:55.739Z,39.27
2019-05-02T13:22:32.478Z,41.70
2019-05-02T13:25:04.063Z,42.83
2019-05-02T13:27:43.274Z,41.13
2019-05-02T13:30:07.602Z,45.43
2019-05-02T13:32:38.541Z,38.67
2019-05-02T13:35:17.532Z,37.37
2019-05-02T13:37:48.402Z,40.83
2019-05-02T13:40:22.561Z,42.17
2019-05-02T13:42:52.354Z,37.80
2019-05-02T13:45:26.493Z,39.27
2019-05-02T13:47:55.707Z,38.33
2019-05-02T13:50:25.073Z,39.90
2019-05-02T13:52:57.826Z,35.87
2019-05-02T13:55:26.940Z,40.03
2019-05-02T13:57:56.748Z,36.43
2019-05-02T14:00:27.698Z,35.30
2019-05-02T14:02:56.968Z,33.87
2019-05-02T14:05:26.392Z,36.20
2019-05-02T14:08:13.500Z,35.77
2019-05-02T14:11:02.385Z,34.77
2019-05-02T14:13:32.591Z,32.70
2019-05-02T14:16:02.383Z,38.53
2019-05-02T14:18:33.553Z,37.33
2019-05-02T14:21:03.563Z,35.80
2019-05-02T14:23:51.819Z,35.87
2019-05-02T14:26:28.220Z,31.03
2019-05-02T14:28:53.260Z,30.83
2019-05-02T14:31:22.632Z,30.20
2019-05-02T14:34:09.805Z,28.00
2019-05-02T14:36:39.327Z,24.47
2019-05-02T14:39:11.826Z,25.43
2019-05-02T14:41:44.416Z,22.63
2019-05-02T14:44:12.067Z,23.60
2019-05-02T14:46:42.495Z,25.03
2019-05-02T14:49:12.149Z,22.13
2019-05-02T14:51:41.862Z,21.53
2019-05-02T14:54:13.121Z,19.73
2019-05-02T14:56:47.861Z,13.60
2019-05-02T14:59:19.863Z,15.17
2019-05-02T15:01:50.253Z,14.23
2019-05-02T15:04:19.535Z,11.97
2019-05-02T15:06:48.777Z,19.67
2019-05-02T15:09:26.797Z,12.03
2019-05-02T15:11:58.575Z,11.83
2019-05-02T15:14:30.084Z,13.37
2019-05-02T15:16:59.630Z,16.00
2019-05-02T15:19:29.004Z,10.63
2019-05-02T15:21:58.272Z,7.67
2019-05-02T15:24:32.064Z,10.13
2019-05-02T15:26:58.560Z,13.87
2019-05-02T15:29:27.875Z,9.10
2019-05-02T15:32:05.293Z,11.30
2019-05-02T15:34:48.040Z,9.13
2019-05-02T15:37:22.191Z,16.73
2019-05-02T15:42:22.879Z,10.80
2019-05-02T15:45:08.255Z,14.23
2019-05-02T15:47:55.508Z,10.77
2019-05-02T15:50:26.725Z,8.87
2019-05-02T15:53:15.569Z,8.73
2019-05-02T15:55:44.923Z,9.07
2019-05-02T15:58:17.096Z,6.87
2019-05-02T16:01:16.396Z,8.77
2019-05-02T16:04:05.833Z,5.93
2019-05-02T16:06:35.300Z,6.83
2019-05-02T16:09:06.797Z,10.70
2019-05-02T16:11:35.932Z,10.03
2019-05-02T16:14:05.370Z,10.53
2019-05-02T16:16:43.612Z,5.97
2019-05-02T16:19:14.909Z,6.43
2019-05-02T16:21:44.053Z,6.47
2019-05-02T16:24:20.166Z,5.67
2019-05-02T16:26:56.665Z,7.70
2019-05-02T16:29:28.523Z,6.60
2019-05-02T16:31:59.699Z,5.43
2019-05-02T16:34:33.913Z,5.07
2019-05-02T16:37:13.426Z,4.60
2019-05-02T16:39:42.490Z,4.60
2019-05-02T16:42:12.512Z,10.80
2019-05-02T16:44:42.919Z,5.67
2019-05-02T16:47:13.887Z,6.60
2019-05-02T16:49:48.036Z,6.73
2019-05-02T16:52:16.074Z,7.40
2019-05-02T16:54:45.626Z,5.77
2019-05-02T16:57:17.393Z,6.70
2019-05-02T16:59:45.875Z,5.60
2019-05-02T17:02:19.207Z,6.83
2019-05-02T17:04:48.457Z,7.47
2019-05-02T17:07:19.452Z,6.77
2019-05-02T17:10:08.594Z,4.60
2019-05-02T17:12:37.809Z,7.10
2019-05-02T17:15:31.321Z,5.23
2019-05-02T17:17:58.903Z,5.67
2019-05-02T17:20:28.137Z,3.87
2019-05-02T17:23:02.626Z,8.37
2019-05-02T17:25:28.352Z,2.70
2019-05-02T17:28:03.932Z,5.13
2019-05-02T17:30:33.315Z,6.53
2019-05-02T17:33:01.767Z,5.33
2019-05-02T17:35:32.433Z,5.33
2019-05-02T17:38:02.565Z,3.53
2019-05-02T17:40:53.702Z,3.80
2019-05-02T17:43:22.562Z,5.47
2019-05-02T17:45:52.078Z,3.63
2019-05-02T17:48:21.488Z,4.47
2019-05-02T17:50:59.089Z,3.57
2019-05-02T17:53:26.403Z,4.07
2019-05-02T17:55:55.625Z,4.23
2019-05-02T17:58:24.917Z,3.30
2019-05-02T18:00:57.103Z,4.03
2019-05-02T18:03:30.880Z,6.33
2019-05-02T18:05:57.350Z,4.67
2019-05-02T18:08:27.106Z,7.70
2019-05-02T18:11:00.105Z,5.73
2019-05-02T18:13:29.252Z,6.13
2019-05-02T18:15:58.202Z,5.57
2019-05-02T18:18:27.626Z,4.90
2019-05-02T18:20:56.841Z,4.63
2019-05-02T18:23:27.725Z,3.60
2019-05-02T18:25:57.528Z,3.80
2019-05-02T18:28:27.796Z,3.40
2019-05-02T18:31:01.475Z,3.93
2019-05-02T18:33:27.856Z,6.20
2019-05-02T18:35:57.028Z,6.40
2019-05-02T18:38:26.330Z,8.03
2019-05-02T18:41:00.225Z,7.17
2019-05-02T18:43:26.520Z,5.37
2019-05-02T18:45:58.276Z,4.70
2019-05-02T18:48:26.640Z,3.20
2019-05-02T18:50:55.887Z,8.33
2019-05-02T18:53:27.278Z,5.97
2019-05-02T18:55:56.702Z,4.40
2019-05-02T18:58:29.379Z,5.40
2019-05-02T19:00:58.680Z,5.93
2019-05-02T19:03:27.842Z,4.23
2019-05-02T19:05:58.475Z,5.87
2019-05-02T19:08:32.233Z,6.60
2019-05-02T19:11:10.012Z,7.40
2019-05-02T19:13:32.681Z,4.77
2019-05-02T19:16:02.195Z,6.83
2019-05-02T19:18:32.330Z,4.07
2019-05-02T19:21:03.437Z,4.57
2019-05-02T19:23:34.191Z,7.20
2019-05-02T19:26:10.135Z,6.30
2019-05-02T19:28:42.946Z,7.10
2019-05-02T19:31:12.228Z,5.97
2019-05-02T19:33:42.723Z,5.00
2019-05-02T19:36:16.459Z,3.17
2019-05-02T19:38:44.217Z,5.10
2019-05-02T19:41:13.402Z,3.70
2019-05-02T19:43:49.548Z,4.00
2019-05-02T19:46:13.411Z,5.03
2019-05-02T19:48:43.056Z,5.50
2019-05-02T19:51:18.644Z,4.53
2019-05-02T19:53:43.355Z,6.93
2019-05-02T19:56:12.872Z,6.60
2019-05-02T19:58:46.478Z,6.60
2019-05-02T20:01:17.453Z,7.17
2019-05-02T20:03:44.237Z,8.40
2019-05-02T20:06:13.569Z,5.60
2019-05-02T20:08:42.761Z,5.03
2019-05-02T20:11:12.659Z,4.43
2019-05-02T20:13:41.952Z,5.97
2019-05-02T20:16:36.509Z,6.13
2019-05-02T20:19:02.934Z,6.90
2019-05-02T20:21:33.760Z,8.23
2019-05-02T20:24:04.291Z,6.17
2019-05-02T20:26:33.924Z,5.63
2019-05-02T20:29:03.114Z,7.53
2019-05-02T20:31:32.307Z,7.00
2019-05-02T20:34:02.538Z,5.47
2019-05-02T20:36:32.226Z,8.90
2019-05-02T20:39:02.287Z,6.20
2019-05-02T20:41:31.673Z,8.87
2019-05-02T20:44:02.601Z,7.63
2019-05-02T20:46:32.640Z,9.07
2019-05-02T20:49:02.261Z,4.70
2019-05-02T20:51:32.021Z,7.90
2019-05-02T20:54:01.905Z,4.37
2019-05-02T20:56:32.111Z,7.93
2019-05-02T20:59:04.647Z,5.03
2019-05-02T21:01:33.871Z,5.53
2019-05-02T21:04:03.070Z,7.67
2019-05-02T21:06:40.806Z,6.67
2019-05-02T21:09:15.821Z,9.13
2019-05-02T21:11:46.684Z,7.33
2019-05-02T21:14:15.894Z,12.33
2019-05-02T21:16:45.246Z,10.70
2019-05-02T21:19:14.478Z,6.43
2019-05-02T21:21:43.677Z,8.80
2019-05-02T21:24:12.918Z,5.23
2019-05-02T21:26:42.252Z,5.07
2019-05-02T21:29:12.156Z,5.23
2019-05-02T21:31:42.561Z,8.07
2019-05-02T21:34:11.924Z,8.43
2019-05-02T21:36:42.572Z,6.63
2019-05-02T21:39:12.636Z,6.60
2019-05-02T21:41:42.390Z,7.77
2019-05-02T21:44:13.152Z,7.90
2019-05-02T21:46:42.644Z,11.27
2019-05-02T21:49:13.497Z,8.47
2019-05-02T21:51:47.046Z,7.17
2019-05-02T21:57:02.746Z,9.30
2019-05-02T21:59:31.941Z,6.23
2019-05-02T22:02:02.447Z,8.60
2019-05-02T22:04:33.637Z,11.47
2019-05-02T22:07:02.868Z,8.23
2019-05-02T22:09:32.420Z,11.50
2019-05-02T22:12:01.723Z,7.97
2019-05-02T22:14:32.826Z,3.90
2019-05-02T22:17:02.343Z,7.90
2019-05-02T22:19:32.299Z,4.83
2019-05-02T22:22:01.743Z,8.37
2019-05-02T22:24:30.927Z,5.33
2019-05-02T22:27:01.902Z,4.40
2019-05-02T22:29:32.442Z,3.33
2019-05-02T22:32:03.033Z,9.50
2019-05-02T22:34:32.723Z,6.67
2019-05-02T22:37:03.056Z,9.40
2019-05-02T22:39:45.791Z,7.40
2019-05-02T22:42:15.170Z,8.30
2019-05-02T22:44:44.423Z,10.93
2019-05-02T22:47:14.074Z,7.70
2019-05-02T22:49:43.423Z,14.00
2019-05-02T22:52:14.298Z,4.30
2019-05-02T22:54:43.781Z,9.53
2019-05-02T22:57:14.346Z,7.27
2019-05-02T22:59:43.793Z,4.83
2019-05-02T23:02:13.086Z,10.37
2019-05-02T23:04:42.306Z,13.70
2019-05-02T23:07:12.641Z,8.30
2019-05-02T23:09:43.674Z,7.70
2019-05-02T23:12:13.239Z,6.67
2019-05-02T23:14:42.720Z,6.67
2019-05-02T23:17:12.791Z,8.97
2019-05-02T23:19:42.445Z,8.63
2019-05-02T23:22:12.695Z,5.30
2019-05-02T23:24:46.544Z,11.03
2019-05-02T23:27:17.403Z,4.70
2019-05-02T23:29:47.621Z,9.37
2019-05-02T23:32:16.835Z,8.63
2019-05-02T23:34:46.049Z,5.40
2019-05-02T23:37:15.292Z,6.53
2019-05-02T23:39:44.496Z,6.90
2019-05-02T23:42:13.721Z,9.07
2019-05-02T23:44:42.959Z,9.03
2019-05-02T23:47:12.261Z,6.13
2019-05-02T23:49:42.782Z,10.07
2019-05-02T23:52:12.063Z,7.43
2019-05-02T23:54:50.102Z,8.23
2019-05-02T23:57:13.191Z,7.70
2019-05-02T23:59:42.495Z,9.70
